Witamy w enduhub !

enduhub
enduhub [\indu'hab, en-\].
endurance [\in-ˈdu̇r-ən(t)s, -ˈdyu̇r-, en-\] : zdolność do długotrwałego wykonywania czynności powszechnie uważanej za trudną.
hub [\ˈhəb\] : centralne i najbardziej aktywne miejsce lub element.

Szukasz wyników po różnych stronach ?

Znajdź swoje wyniki, sprawdź znajomych.

http://enduhub.com to wyszukiwarka wyników zawodów sportowych.Znajdziesz u nas wyniki biegów, triathlonu,kolarstwa,pływania i innych.


Szukasz wyników po różnych stronach ?

Zarejestruj teraz ! Dlaczego warto ?

  • Możesz dodawać wyniki do swojej prywatnej listy.
  • Możesz sprawdzić swój poziom na tle rówieśników - Enduhub Performace Index.
  • Możesz zgłaszać wyniki do załadowania - Zgłoś wyniki.
  • Możesz planować wynik i starty w kalendarzu - Planuj.
  • Możesz założyć drużynę i zaprosić znajomych - Zespoły.
  • Stay tuned ..... !

Aquathlon Rumia - Wyścig IV

Wyniki - 26 kwietnia 2014, Rumia

IV wyścig (16-17, 24-39 amatorzy, +40 lat) - pływanie 600m + bieg 3km

Enduhub Prime (Café Edition)

Pomóż budować największą bazę wyników w Polsce i dołącz do Enduhub Prime (Café Edition) !

  • Pełna funkcjonalność.
  • Bez żadnych umów i drobnego druczku, rezygnujesz kiedy chcesz.
  • Jedno expresso na miesiąc dla nas.

Kup Enduhub Prime Café za 7,99
Msc
Rok
Kat
K16
M16
Ka
Ma
K40
M40
-
-
-
-
#1 1 miejsce i złoty medal. Gratulacje !1Mateusz Konopka1997M16Delfin Gdynia00:19:0600:06:4600:12:2000:00:00-1----
#2 2 miejsce i srebrny medal. Gratulacje !2Waldemar Krakowiak1998M16WKS Poznań00:19:5000:07:1400:12:3600:00:44-2----
#3 3rd place and bronze medal. Congratulations ! 3Wojtek Pawliszyn1997M16UKS Tri-Team Rumia00:19:5200:08:2600:11:2600:00:46-3----
#4 4Wacław Kryszak1998M16UKS Mewa Władysławowo00:20:0200:09:0200:11:0000:00:56-4----
#5 5Jędrzej Walaszek1998M16Skalar Słupsk00:20:2700:07:4400:12:4300:01:21-5----
#6 1 miejsce i złoty medal. Gratulacje !6Julia Goc1997K16KTS Ironman Kwidzyn00:20:3100:08:0100:12:3000:01:251-----
#7 1 miejsce i złoty medal. Gratulacje !7Michał Wysłouch1984M(A)Włocławek00:21:0500:10:2300:10:4200:01:59---1--
#8 8Patryk Cichowski1998M16Orka Iława00:21:1300:09:1200:12:0100:02:07-6----
#9 1 miejsce i złoty medal. Gratulacje !9Jarosław Mamcarz1967M+40WOPR Tczew00:21:1400:09:1200:12:0200:02:08-----1
#10 1 miejsce i złoty medal. Gratulacje !10Anna Goździejewska1967K+40AZS UWM Masters Olsztyn00:21:2800:08:3900:12:4900:02:22----1-
#11 2 miejsce i srebrny medal. Gratulacje !11Dawid Łach1988M(A)AZS UWM Masters Olsztyn00:21:2900:08:4000:12:4900:02:23---2--
#12 3rd place and bronze medal. Congratulations ! 12Grzegorz Burakowski1976M(A)Reda00:21:3400:09:1800:12:1600:02:28---3--
#13 2 miejsce i srebrny medal. Gratulacje !13Jacek Lendzian1973M+40AKM Olimp Olsztyn00:21:4400:09:5600:11:4800:02:38-----2
#14 14Tomasz Ławrynowicz1975M(A)00:21:5300:09:0800:12:4500:02:47---4--
#15 3rd place and bronze medal. Congratulations ! 15Stefan Tomczyk1973M+40UKS TRS Susz00:21:5600:09:5400:12:0200:02:50-----3
#16 16Adam Skomski1971M+40TEAM 360 Mosty00:22:0600:10:3900:11:2700:03:00-----4
#17 17Lech Winicjusz1996M(A)Tczew00:22:1200:09:2400:12:4800:03:06---5--
#18 18Maciej Huryn1998M16UKS Mewa Władysławowo00:22:2700:09:2000:13:0700:03:21-7----
#19 19Bartek Żelaziński1998M16Orka Iława00:22:3000:09:3500:12:5500:03:24-8----
#20 20Maciej Kowalewski1978M(A)Skalar Słupsk00:22:3900:08:5700:13:4200:03:33---6--
#21 21Kamil Muża1998M16UKS Mewa Władysławowo00:22:4900:08:1200:14:3700:03:43-9----
#22 22Roman Andryka1976M(A)Koleczkowo00:22:5600:10:4600:12:1000:03:50---7--
#23 23Piotr Rumiński1997M16Delfin Malbork00:23:2400:09:0900:14:1500:04:18-10----
#24 1 miejsce i złoty medal. Gratulacje !24Gabriela Czyż1976K(A)UKS Mewa Władysławowo00:23:2800:09:1000:14:1800:04:22--1---
#25 25Przemek Bożeński1998M16UKS Tri-Team Rumia00:23:3000:09:5100:13:3900:04:24-11----
#26 26Mikołaj Kołakowski1971M+40UKS Tri-Team Rumia00:23:3500:10:2300:13:1200:04:29-----5
#27 27Wojciech Wieczorek1980M(A)WKS Poznań00:23:4000:11:1600:12:2400:04:34---8--
#28 28Karol Dziemian1973M+40AZS UWM Masters Olsztyn00:23:4600:10:4500:13:0100:04:40-----6
#29 29Krzysztof Wiatrowski1977M(A)IronTeam3city Gdańsk00:24:0600:12:3000:11:3600:05:00---9--
#30 30Tomasz Maślanka1978M(A)Skalar Słupsk00:24:1700:10:2800:13:4900:05:11---10--
#31 2 miejsce i srebrny medal. Gratulacje !31Elżbieta Krakowiak1969K+40WKS Poznań00:24:4200:07:5700:16:4500:05:36----2-
#32 32Janusz Kramek1962M+40Skalar Słupsk00:24:4500:12:2500:12:2000:05:39-----7
#33 3rd place and bronze medal. Congratulations ! 33Beata Zubel1968K+40Beta Swim Team Słupsk00:25:3100:08:4700:16:4400:06:25----3-
#34 34Aleksander Czynsz1958M+40UKS Tri-Team Rumia00:25:5000:12:5400:12:5600:06:44-----8
#35 35Leszek Paszkowski1962M+40MOSiR Gdańsk00:26:0300:12:2300:13:4000:06:57-----9
#36 36Rafał Jarliński1968M+40Orka Iława00:26:0400:11:0400:15:0000:06:58-----10
#37 2 miejsce i srebrny medal. Gratulacje !37Aleksandra Obiedzińska1977K(A)KTS Ironman Kwidzyn00:26:3300:11:1200:15:2100:07:27--2---
#38 38Bartłomiej Świs1997M16Delfin Malbork00:26:3500:08:1700:18:1800:07:29-12----
#39 3rd place and bronze medal. Congratulations ! 39Natalia Żbikowska1981K(A)Rumia00:26:3700:10:5600:15:4100:07:31--3---
#40 40Katarzyna Petelska1986K(A)PowerOn3city Gdańsk00:27:0500:12:3700:14:2800:07:59--4---
#41 41Katarzyna Wiatrowska1987K(A)IronTeam3city Gdańsk00:27:1700:11:5800:15:1900:08:11--5---
#42 42Magdalena Wolf1981K(A)KTS Ironman Kwidzyn00:27:3500:14:1500:13:2000:08:29--6---
#43 43Marek Kac1974M+40UKS Tri-Team Rumia00:27:3900:14:0900:13:3000:08:33-----11
#44 2 miejsce i srebrny medal. Gratulacje !44Karolina Waz1998K16UKS Mewa Władysławowo00:27:5300:10:4100:17:1200:08:472-----
#45 45Kamila Buszta1986K(A)Starogard Gdański00:28:0600:13:2500:14:4100:09:00--7---
#46 46Jarosław Markiewicz1977M(A)UKS Mewa Władysławowo00:28:0900:12:2800:15:4100:09:03---11--
#47 47Agnieszka Sikora- Paw1984K(A)Rumia00:28:5000:13:0900:15:4100:09:44--8---
#48 48Jerzy Skrzypek1967M+40Skalar Słupsk00:28:5600:12:3200:16:2400:09:50-----12
#49 49Lena Zajko1986K(A)Rumia00:28:5800:13:4900:15:0900:09:52--9---
#50 52Bożena Jarlińska1970K+40Orka Iława00:33:5400:15:4400:18:1000:14:48----4-

Google Play

wyniki sporty wytrzymałośćiowe, bieganie, kolarstwo, MTB, triatlon, pływanie, duathlon, maraton, multisport http://www.cityzenklub.pl ligabiegowa.pl zawody & wyniki w jednym miejscu

Ta strona używa Cookies. Dowiedz się więcej o celu ich używania - przeczytaj naszą politykę prywatności.Korzystając ze strony wyrażasz zgodę na używanie cookie, zgodnie z aktualnymi ustawieniami przeglądarki.

enduhub.com jest thebeściak więc się zgadzam ! Polityka prywatności